This is the latest recevied weather packets stored in our database for station/object N3TTT-13. If no packets are shown the sender has not sent any weather packets the latest 1 day(s).
| Time | Temp. | Humidity | Pressure | Rain* | Wind** | Luminosity | Snow |
|---|---|---|---|---|---|---|---|
| 1778088766 | 19.44° C | 82% | 1009.7 hPa | 0 mm | 2.68 m/s, 164° | 261 W/m² | - |
| 1778088462 | 18.89° C | 84% | 1009.7 hPa | 0 mm | 2.24 m/s, 180° | 161 W/m² | - |
| 1778088159 | 18.89° C | 84% | 1009.8 hPa | 0 mm | 0.45 m/s, 261° | 250 W/m² | - |
| 1778087857 | 18.89° C | 85% | 1009.7 hPa | 0 mm | 0.45 m/s, 180° | 366 W/m² | - |
| 1778087554 | 18.33° C | 86% | 1009.7 hPa | 0 mm | 0.45 m/s, 249° | 370 W/m² | - |
| 1778087251 | 17.78° C | 87% | 1009.7 hPa | 0 mm | 0.89 m/s, 246° | 143 W/m² | - |
| 1778086948 | 17.78° C | 87% | 1010 hPa | 0 mm | 1.34 m/s, 262° | 58 W/m² | - |
| 1778086646 | 17.78° C | 89% | 1010.1 hPa | 0 mm | 0.45 m/s, 245° | 91 W/m² | - |
| 1778086343 | 17.78° C | 88% | 1010.1 hPa | 0 mm | 0.45 m/s, 226° | 68 W/m² | - |
| 1778086040 | 17.78° C | 88% | 1010.2 hPa | 0 mm | 0.45 m/s, 244° | 111 W/m² | - |
| 1778085737 | 17.78° C | 89% | 1010.1 hPa | 0 mm | 0.45 m/s, 201° | 146 W/m² | - |
| 1778085434 | 17.78° C | 89% | 1010.1 hPa | 0 mm | 0.89 m/s, 310° | 205 W/m² | - |
| 1778085129 | 17.78° C | 89% | 1010 hPa | 0 mm | 0.89 m/s, 224° | 218 W/m² | - |
| 1778084825 | 17.78° C | 89% | 1010.1 hPa | 0 mm | 0.45 m/s, 286° | 122 W/m² | - |
| 1778084522 | 17.78° C | 88% | 1010.2 hPa | 0 mm | 0.45 m/s, 208° | 111 W/m² | - |
| 1778084220 | 17.78° C | 87% | 1010.2 hPa | 0 mm | 0.45 m/s, 259° | 135 W/m² | - |
| 1778083916 | 17.78° C | 88% | 1010.5 hPa | 0 mm | 0.45 m/s, 241° | 178 W/m² | - |
| 1778083614 | 17.78° C | 87% | 1011 hPa | 0 mm | 1.34 m/s, 202° | 127 W/m² | - |
| 1778083311 | 18.33° C | 86% | 1011 hPa | 0 mm | 1.34 m/s, 184° | 162 W/m² | - |
| 1778083009 | 18.89° C | 84% | 1011.2 hPa | 0 mm | 0.45 m/s, 126° | 110 W/m² | - |
| 1778082706 | 19.44° C | 79% | 1011.2 hPa | 0 mm | 0.45 m/s, 220° | 127 W/m² | - |
| 1778081568 | 20° C | 79% | 1011.3 hPa | 0 mm | 0.89 m/s, 268° | 130 W/m² | - |
| 1778081265 | 20° C | 77% | 1011 hPa | 0 mm | 0.45 m/s, 261° | 177 W/m² | - |
| 1778080962 | 20° C | 78% | 1011.3 hPa | 0 mm | 0.45 m/s, 215° | 266 W/m² | - |
| 1778080661 | 20° C | 77% | 1011.1 hPa | 0 mm | 0.89 m/s, 209° | 194 W/m² | - |
* Rain latest hour (hover to see other rain measurements)
** Current wind speed in m/s (hover to see current wind gust speed)